createdAt,value
2022-09-30T00:02:29.485Z,11.69
2022-09-30T00:04:58.437Z,11.76
2022-09-30T00:07:37.586Z,11.76
2022-09-30T00:10:13.795Z,11.78
2022-09-30T00:12:51.646Z,11.66
2022-09-30T00:15:30.923Z,11.66
2022-09-30T00:18:02.227Z,11.79
2022-09-30T00:20:35.848Z,11.74
2022-09-30T00:23:09.685Z,11.76
2022-09-30T00:25:40.160Z,11.66
2022-09-30T00:28:10.857Z,11.67
2022-09-30T00:30:44.662Z,11.67
2022-09-30T00:33:15.066Z,11.66
2022-09-30T00:35:49.311Z,11.67
2022-09-30T00:38:22.988Z,11.77
2022-09-30T00:41:06.456Z,11.68
2022-09-30T00:44:00.426Z,11.67
2022-09-30T00:46:49.551Z,11.74
2022-09-30T00:49:31.337Z,11.77
2022-09-30T00:52:05.164Z,11.59
2022-09-30T00:54:41.501Z,11.62
2022-09-30T00:57:15.416Z,11.70
2022-09-30T00:59:56.471Z,11.75
2022-09-30T01:02:24.314Z,11.76
2022-09-30T01:04:54.384Z,11.69
2022-09-30T01:10:20.440Z,11.72
2022-09-30T01:12:49.964Z,11.78
2022-09-30T01:15:20.564Z,11.68
2022-09-30T01:18:16.903Z,11.67
2022-09-30T01:21:23.734Z,11.56
2022-09-30T01:24:41.418Z,11.32
2022-09-30T01:28:10.145Z,11.61
2022-09-30T01:31:20.744Z,11.60
2022-09-30T01:34:18.229Z,11.60
2022-09-30T01:37:39.551Z,11.68
2022-09-30T01:40:28.855Z,11.43
2022-09-30T01:43:15.326Z,11.55
2022-09-30T01:46:37.670Z,11.48
2022-09-30T01:49:26.498Z,11.60
2022-09-30T01:52:18.742Z,11.60
2022-09-30T01:55:25.577Z,11.64
2022-09-30T01:58:21.577Z,11.70
2022-09-30T02:01:06.280Z,11.66
2022-09-30T02:03:42.777Z,11.71
2022-09-30T02:06:23.759Z,11.69
2022-09-30T02:12:21.975Z,11.67
2022-09-30T02:15:18.972Z,11.70
2022-09-30T02:18:40.321Z,11.72
2022-09-30T02:21:14.903Z,11.55
2022-09-30T02:23:55.338Z,11.66
2022-09-30T02:26:37.512Z,11.62
2022-09-30T02:29:13.383Z,11.73
2022-09-30T02:31:45.305Z,11.71
2022-09-30T02:34:45.547Z,11.73
2022-09-30T02:37:24.775Z,11.71
2022-09-30T02:40:36.082Z,11.72
2022-09-30T02:43:09.207Z,11.65
2022-09-30T02:46:07.687Z,11.62
2022-09-30T02:49:02.175Z,11.59
2022-09-30T02:52:00.338Z,11.43
2022-09-30T02:54:38.137Z,11.63
2022-09-30T02:57:50.381Z,11.59
2022-09-30T03:00:28.588Z,11.70
2022-09-30T03:03:42.439Z,11.61
2022-09-30T03:06:30.519Z,11.67
2022-09-30T03:09:01.341Z,11.65
2022-09-30T03:11:32.873Z,11.64
2022-09-30T03:14:32.852Z,11.62
2022-09-30T03:17:39.326Z,11.71
2022-09-30T03:20:41.342Z,11.62
2022-09-30T03:23:32.473Z,11.56
2022-09-30T03:26:40.475Z,11.59
2022-09-30T03:29:19.324Z,11.46
2022-09-30T03:32:12.695Z,11.56
2022-09-30T03:35:14.125Z,11.65
2022-09-30T03:37:52.259Z,11.56
2022-09-30T03:41:11.775Z,11.46
2022-09-30T03:43:51.926Z,11.42
2022-09-30T03:46:42.351Z,11.54
2022-09-30T03:49:23.332Z,11.60
2022-09-30T03:52:00.527Z,11.59
2022-09-30T03:54:42.134Z,11.69
2022-09-30T03:57:20.736Z,11.55
2022-09-30T03:59:52.163Z,11.67
2022-09-30T04:02:29.387Z,11.67
2022-09-30T04:05:02.636Z,11.62
2022-09-30T04:07:34.312Z,11.63
2022-09-30T04:10:16.328Z,11.71
2022-09-30T04:12:50.511Z,11.81
2022-09-30T04:15:22.179Z,11.69
2022-09-30T04:17:57.387Z,11.78
2022-09-30T04:20:29.384Z,11.74
2022-09-30T04:23:04.519Z,11.62
2022-09-30T04:28:18.083Z,11.77
2022-09-30T04:30:49.385Z,11.70
2022-09-30T04:33:22.987Z,11.81
2022-09-30T04:35:59.475Z,11.82
2022-09-30T04:38:39.739Z,11.72
2022-09-30T04:41:16.089Z,11.75
2022-09-30T04:43:47.021Z,11.55
2022-09-30T04:46:26.879Z,11.71
2022-09-30T04:48:55.169Z,11.74
2022-09-30T04:51:34.939Z,11.79
2022-09-30T04:54:09.797Z,11.75
2022-09-30T04:56:39.310Z,11.75
2022-09-30T04:59:15.051Z,11.71
2022-09-30T05:01:52.337Z,11.74
2022-09-30T05:07:11.528Z,11.68
2022-09-30T05:09:39.771Z,11.60
2022-09-30T05:12:15.704Z,11.56
2022-09-30T05:14:59.298Z,11.66
2022-09-30T05:17:32.938Z,11.69
2022-09-30T05:20:21.338Z,11.67
2022-09-30T05:23:02.922Z,11.76
2022-09-30T05:25:46.509Z,11.76
2022-09-30T05:28:26.238Z,11.71
2022-09-30T05:31:12.405Z,11.82
2022-09-30T05:33:42.776Z,11.74
2022-09-30T05:36:22.603Z,11.84
2022-09-30T05:38:59.485Z,11.85
2022-09-30T05:41:35.227Z,11.95
2022-09-30T05:44:04.595Z,11.98
2022-09-30T05:46:38.170Z,11.99
2022-09-30T05:49:10.090Z,11.98
2022-09-30T05:51:42.711Z,12.08
2022-09-30T05:54:19.111Z,12.19
2022-09-30T05:56:50.552Z,12.10
2022-09-30T05:59:19.021Z,11.96
2022-09-30T06:01:49.669Z,12.09
2022-09-30T06:04:21.624Z,12.00
2022-09-30T06:06:55.884Z,12.13
2022-09-30T06:09:27.611Z,12.22
2022-09-30T06:11:58.468Z,12.29
2022-09-30T06:14:32.447Z,12.33
2022-09-30T06:17:03.244Z,12.36
2022-09-30T06:19:43.590Z,12.35
2022-09-30T06:22:22.284Z,12.34
2022-09-30T06:25:05.282Z,12.24
2022-09-30T06:27:42.307Z,12.23
2022-09-30T06:30:14.907Z,12.30
2022-09-30T06:32:50.590Z,12.31
2022-09-30T06:35:30.536Z,12.19
2022-09-30T06:38:01.124Z,12.35
2022-09-30T06:40:31.117Z,12.54
2022-09-30T06:43:07.809Z,12.66
2022-09-30T06:45:41.859Z,12.75
2022-09-30T06:48:26.330Z,12.73
2022-09-30T06:51:07.577Z,12.71
2022-09-30T06:53:40.451Z,12.81
2022-09-30T06:56:12.045Z,12.81
2022-09-30T06:58:48.923Z,12.64
2022-09-30T07:01:24.794Z,12.53
2022-09-30T07:04:01.227Z,12.68
2022-09-30T07:06:31.305Z,12.86
2022-09-30T07:09:08.643Z,12.85
2022-09-30T07:11:45.500Z,12.79
2022-09-30T07:14:14.510Z,12.96
2022-09-30T07:16:51.121Z,13.07
2022-09-30T07:19:25.133Z,13.02
2022-09-30T07:22:03.620Z,13.08
2022-09-30T07:24:37.791Z,13.20
2022-09-30T07:27:08.106Z,13.28
2022-09-30T07:29:56.884Z,13.34
2022-09-30T07:32:39.897Z,13.56
2022-09-30T07:35:16.956Z,13.56
2022-09-30T07:37:49.922Z,13.61
2022-09-30T07:40:19.554Z,13.56
2022-09-30T07:42:51.260Z,13.44
2022-09-30T07:45:29.953Z,13.30
2022-09-30T07:48:05.442Z,13.40
2022-09-30T07:53:41.193Z,13.60
2022-09-30T07:56:15.962Z,13.68
2022-09-30T07:58:53.863Z,13.85
2022-09-30T08:01:43.821Z,13.93
2022-09-30T08:07:13.121Z,13.75
2022-09-30T08:09:53.290Z,13.77
2022-09-30T08:12:36.545Z,13.86
2022-09-30T08:15:10.840Z,14.03
2022-09-30T08:17:47.166Z,14.04
2022-09-30T08:20:22.615Z,14.29
2022-09-30T08:22:59.002Z,14.28
2022-09-30T08:25:31.585Z,14.40
2022-09-30T08:28:04.632Z,14.49
2022-09-30T08:30:44.624Z,14.84
2022-09-30T08:33:15.707Z,14.77
2022-09-30T08:38:42.175Z,14.74
2022-09-30T08:41:41.957Z,14.92
2022-09-30T08:44:47.899Z,14.90
2022-09-30T08:47:39.479Z,14.95
2022-09-30T08:50:31.405Z,14.95
2022-09-30T08:53:09.336Z,15.10
2022-09-30T08:55:45.598Z,14.92
2022-09-30T08:58:23.230Z,14.90
2022-09-30T09:01:02.786Z,14.92
2022-09-30T09:03:42.097Z,14.77
2022-09-30T09:06:38.376Z,14.90
2022-09-30T09:09:49.552Z,14.98
2022-09-30T09:13:07.133Z,15.21
2022-09-30T09:15:53.454Z,15.22
2022-09-30T09:18:38.524Z,15.14
2022-09-30T09:21:30.409Z,15.08
2022-09-30T09:24:25.558Z,15.17
2022-09-30T09:27:11.277Z,14.93
2022-09-30T09:30:10.181Z,15.05
2022-09-30T09:32:42.577Z,15.21
2022-09-30T09:35:59.753Z,15.24
2022-09-30T09:42:17.973Z,15.79
2022-09-30T09:45:21.513Z,15.99
2022-09-30T09:48:03.395Z,16.12
2022-09-30T09:51:02.357Z,16.27
2022-09-30T09:53:45.174Z,16.20
2022-09-30T09:56:32.532Z,16.27
2022-09-30T09:59:20.893Z,16.49
2022-09-30T10:01:54.794Z,16.35
2022-09-30T10:04:30.411Z,16.28
2022-09-30T10:07:13.238Z,16.41
2022-09-30T10:09:48.647Z,16.50
2022-09-30T10:12:36.846Z,16.56
2022-09-30T10:15:27.806Z,16.86
2022-09-30T10:18:01.129Z,17.25
2022-09-30T10:20:35.233Z,17.20
2022-09-30T10:23:28.609Z,16.90
2022-09-30T10:26:35.953Z,16.92
2022-09-30T10:29:07.699Z,16.85
2022-09-30T10:34:46.203Z,16.89
2022-09-30T10:37:29.162Z,16.82
2022-09-30T10:43:00.899Z,17.16
2022-09-30T10:45:37.429Z,17.23
2022-09-30T10:48:30.582Z,17.32
2022-09-30T10:51:10.235Z,17.06
2022-09-30T10:53:51.476Z,16.75
2022-09-30T10:57:03.169Z,16.90
2022-09-30T10:59:45.870Z,17.16
2022-09-30T11:02:43.721Z,17.17
2022-09-30T11:05:28.792Z,17.38
2022-09-30T11:08:29.847Z,17.71
2022-09-30T11:11:17.638Z,18.34
2022-09-30T11:14:05.068Z,18.52
2022-09-30T11:20:43.903Z,19.06
2022-09-30T11:23:39.923Z,18.68
2022-09-30T11:26:31.799Z,18.56
2022-09-30T11:30:01.257Z,18.80
2022-09-30T11:33:03.676Z,19.10
2022-09-30T11:35:58.790Z,19.75
2022-09-30T11:39:06.751Z,19.29
2022-09-30T11:42:02.570Z,18.49
2022-09-30T11:44:52.075Z,18.38
2022-09-30T11:47:59.811Z,18.17
2022-09-30T11:51:16.680Z,18.04
2022-09-30T11:54:09.224Z,17.92
2022-09-30T11:57:20.718Z,17.85
2022-09-30T12:00:11.317Z,17.75
2022-09-30T12:02:44.099Z,17.85
2022-09-30T12:05:26.847Z,17.88
2022-09-30T12:08:39.627Z,17.93
2022-09-30T12:11:21.098Z,17.99
2022-09-30T12:14:01.630Z,18.00
2022-09-30T12:16:36.757Z,17.88
2022-09-30T12:19:44.472Z,17.87
2022-09-30T12:22:19.940Z,17.99
2022-09-30T12:24:56.959Z,17.88
2022-09-30T12:27:48.197Z,17.83
2022-09-30T12:30:20.620Z,17.82
2022-09-30T12:33:24.699Z,17.79
2022-09-30T12:36:14.531Z,17.72
2022-09-30T12:38:59.411Z,17.71
2022-09-30T12:42:10.444Z,17.69
2022-09-30T12:44:52.313Z,17.71
2022-09-30T12:48:17.589Z,17.60
2022-09-30T12:51:03.382Z,17.50
2022-09-30T12:53:44.565Z,17.55
2022-09-30T12:56:38.466Z,17.51
2022-09-30T12:59:22.476Z,17.34
2022-09-30T13:02:02.588Z,17.41
2022-09-30T13:04:48.041Z,17.38
2022-09-30T13:07:30.890Z,17.36
2022-09-30T13:10:03.063Z,17.31
2022-09-30T13:12:50.594Z,17.26
2022-09-30T13:15:39.706Z,17.21
2022-09-30T13:18:32.182Z,17.14
2022-09-30T13:21:14.896Z,17.13
2022-09-30T13:24:03.291Z,17.06
2022-09-30T13:26:43.850Z,16.93
2022-09-30T13:29:36.451Z,17.05
2022-09-30T13:32:12.870Z,16.93
2022-09-30T13:35:00.290Z,16.93
2022-09-30T13:37:46.905Z,16.93
2022-09-30T13:40:50.088Z,16.90
2022-09-30T13:43:47.916Z,16.69
2022-09-30T13:46:45.134Z,16.55
2022-09-30T13:49:42.998Z,16.64
2022-09-30T13:52:34.216Z,16.54
2022-09-30T13:55:20.964Z,16.54
2022-09-30T13:58:38.744Z,16.56
2022-09-30T14:01:48.918Z,16.57
2022-09-30T14:05:01.348Z,16.49
2022-09-30T14:07:58.527Z,16.32
2022-09-30T14:10:57.642Z,16.30
2022-09-30T14:14:03.179Z,16.31
2022-09-30T14:17:07.565Z,16.14
2022-09-30T14:20:31.374Z,16.18
2022-09-30T14:23:08.141Z,16.06
2022-09-30T14:25:46.474Z,16.06
2022-09-30T14:31:24.477Z,16.26
2022-09-30T14:34:03.832Z,16.23
2022-09-30T14:36:34.081Z,16.19
2022-09-30T14:39:14.239Z,16.18
2022-09-30T14:42:02.743Z,15.74
2022-09-30T14:44:41.350Z,16.00
2022-09-30T14:47:17.472Z,15.96
2022-09-30T14:49:55.216Z,15.95
2022-09-30T14:53:00.154Z,15.60
2022-09-30T14:55:41.285Z,15.90
2022-09-30T14:58:47.180Z,15.89
2022-09-30T15:01:25.455Z,15.86
2022-09-30T15:04:26.309Z,15.88
2022-09-30T15:07:07.220Z,15.71
2022-09-30T15:09:55.820Z,15.66
2022-09-30T15:12:27.426Z,15.75
2022-09-30T15:15:00.606Z,15.74
2022-09-30T15:17:40.764Z,15.59
2022-09-30T15:20:45.907Z,15.69
2022-09-30T15:23:23.444Z,15.70
2022-09-30T15:25:52.485Z,15.66
2022-09-30T15:28:24.287Z,15.53
2022-09-30T15:31:14.977Z,15.56
2022-09-30T15:33:50.596Z,15.46
2022-09-30T15:36:28.925Z,15.54
2022-09-30T15:39:00.650Z,15.57
2022-09-30T15:41:29.755Z,15.53
2022-09-30T15:44:05.526Z,15.50
2022-09-30T15:46:44.179Z,15.53
2022-09-30T15:50:04.422Z,15.49
2022-09-30T15:52:51.682Z,15.41
2022-09-30T15:59:06.703Z,15.45
2022-09-30T16:02:02.178Z,15.47
2022-09-30T16:04:47.678Z,15.46
2022-09-30T16:07:31.518Z,15.43
2022-09-30T16:10:13.792Z,15.42
2022-09-30T16:12:50.576Z,15.41
2022-09-30T16:15:24.962Z,15.43
2022-09-30T16:18:00.850Z,15.36
2022-09-30T16:20:32.930Z,15.38
2022-09-30T16:23:07.734Z,15.38
2022-09-30T16:25:43.797Z,15.31
2022-09-30T16:28:18.444Z,15.26
2022-09-30T16:30:51.761Z,15.30
2022-09-30T16:33:31.071Z,15.20
2022-09-30T16:36:02.743Z,15.35
2022-09-30T16:38:36.454Z,15.33
2022-09-30T16:41:16.716Z,15.15
2022-09-30T16:43:55.159Z,15.21
2022-09-30T16:49:21.466Z,15.25
2022-09-30T16:52:01.969Z,15.26
2022-09-30T16:54:45.029Z,15.21
2022-09-30T16:57:25.043Z,15.17
2022-09-30T17:00:20.522Z,15.13
2022-09-30T17:02:51.907Z,15.13
2022-09-30T17:05:27.864Z,15.14
2022-09-30T17:10:49.192Z,15.10
2022-09-30T17:16:13.373Z,15.02
2022-09-30T17:18:42.643Z,15.02
2022-09-30T17:21:13.968Z,15.00
2022-09-30T17:26:28.964Z,14.98
2022-09-30T17:29:21.043Z,14.93
2022-09-30T17:32:04.756Z,14.94
2022-09-30T17:34:46.283Z,14.97
2022-09-30T17:37:15.206Z,14.93
2022-09-30T17:39:45.862Z,14.93
2022-09-30T17:42:36.007Z,14.95
2022-09-30T17:45:25.263Z,14.92
2022-09-30T17:48:11.179Z,14.82
2022-09-30T17:50:43.192Z,14.71
2022-09-30T17:53:21.232Z,14.75
2022-09-30T17:56:19.870Z,14.89
2022-09-30T17:58:55.877Z,14.76
2022-09-30T18:01:36.112Z,14.81
2022-09-30T18:04:07.202Z,14.76
2022-09-30T18:06:40.550Z,14.66
2022-09-30T18:09:21.741Z,14.80
2022-09-30T18:12:01.829Z,14.83
2022-09-30T18:14:38.701Z,14.80
2022-09-30T18:17:19.285Z,14.86
2022-09-30T18:22:38.511Z,14.82
2022-09-30T18:25:28.507Z,14.81
2022-09-30T18:28:03.893Z,14.80
2022-09-30T18:30:33.560Z,14.79
2022-09-30T18:33:06.693Z,14.71
2022-09-30T18:36:00.068Z,14.78
2022-09-30T18:38:30.458Z,14.76
2022-09-30T18:41:29.431Z,14.76
2022-09-30T18:44:07.369Z,14.74
2022-09-30T18:46:37.962Z,14.74
2022-09-30T18:49:08.674Z,14.78
2022-09-30T18:51:44.613Z,14.73
2022-09-30T18:54:18.662Z,14.74
2022-09-30T18:56:47.864Z,14.72
2022-09-30T18:59:31.627Z,14.69
2022-09-30T19:02:10.988Z,14.68
2022-09-30T19:04:40.489Z,14.66
2022-09-30T19:07:25.526Z,14.68
2022-09-30T19:09:59.454Z,14.67
2022-09-30T19:12:31.441Z,14.64
2022-09-30T19:15:02.385Z,14.65
2022-09-30T19:17:34.392Z,14.66
2022-09-30T19:20:09.340Z,14.68
2022-09-30T19:22:45.114Z,14.53
2022-09-30T19:28:16.662Z,14.57
2022-09-30T19:30:48.878Z,14.50
2022-09-30T19:33:38.433Z,14.47
2022-09-30T19:36:25.669Z,14.58
2022-09-30T19:39:08.230Z,14.51
2022-09-30T19:41:44.821Z,14.61
2022-09-30T19:44:31.372Z,14.64
2022-09-30T19:47:05.965Z,14.65
2022-09-30T19:49:46.260Z,14.63
2022-09-30T19:52:21.858Z,14.61
2022-09-30T19:55:11.156Z,14.56
2022-09-30T19:57:51.380Z,14.50
2022-09-30T20:00:31.059Z,14.48
2022-09-30T20:03:04.822Z,14.52
2022-09-30T20:05:50.299Z,14.54
2022-09-30T20:08:24.352Z,14.57
2022-09-30T20:11:00.035Z,14.60
2022-09-30T20:13:30.512Z,14.60
2022-09-30T20:16:07.739Z,14.61
2022-09-30T20:18:48.433Z,14.61
2022-09-30T20:21:33.619Z,14.57
2022-09-30T20:24:07.894Z,14.60
2022-09-30T20:26:45.910Z,14.61
2022-09-30T20:29:23.188Z,14.45
2022-09-30T20:32:05.966Z,14.56
2022-09-30T20:34:40.768Z,14.52
2022-09-30T20:37:15.705Z,14.49
2022-09-30T20:39:54.825Z,14.45
2022-09-30T20:45:27.410Z,14.32
2022-09-30T20:48:00.680Z,14.29
2022-09-30T20:50:47.955Z,14.28
2022-09-30T20:53:24.930Z,14.36
2022-09-30T20:56:10.916Z,14.32
2022-09-30T20:59:11.010Z,14.33
2022-09-30T21:01:47.340Z,14.34
2022-09-30T21:04:17.786Z,14.38
2022-09-30T21:06:49.608Z,14.38
2022-09-30T21:09:25.704Z,14.31
2022-09-30T21:12:14.412Z,14.30
2022-09-30T21:14:54.292Z,14.27
2022-09-30T21:17:26.997Z,14.33
2022-09-30T21:20:10.181Z,14.36
2022-09-30T21:22:50.257Z,14.32
2022-09-30T21:25:28.880Z,14.37
2022-09-30T21:27:58.990Z,14.37
2022-09-30T21:30:30.490Z,14.36
2022-09-30T21:33:01.427Z,14.33
2022-09-30T21:35:34.974Z,14.23
2022-09-30T21:38:11.744Z,14.37
2022-09-30T21:40:47.111Z,14.33
2022-09-30T21:43:20.024Z,14.26
2022-09-30T21:45:50.279Z,14.29
2022-09-30T21:48:24.469Z,14.34
2022-09-30T21:50:58.265Z,14.30
2022-09-30T21:53:37.517Z,14.34
2022-09-30T21:56:06.467Z,14.30
2022-09-30T21:58:43.217Z,14.30
2022-09-30T22:01:13.416Z,14.31
2022-09-30T22:03:52.147Z,14.27
2022-09-30T22:06:29.653Z,14.25
2022-09-30T22:09:05.092Z,14.30
2022-09-30T22:11:33.895Z,14.21
2022-09-30T22:14:08.913Z,14.23
2022-09-30T22:16:40.830Z,14.32
2022-09-30T22:19:12.789Z,14.33
2022-09-30T22:21:44.177Z,14.35
2022-09-30T22:24:14.107Z,14.37
2022-09-30T22:26:44.541Z,14.35
2022-09-30T22:29:19.604Z,14.33
2022-09-30T22:34:56.169Z,14.35
2022-09-30T22:37:44.006Z,14.31
2022-09-30T22:40:17.861Z,14.27
2022-09-30T22:42:59.854Z,14.31
2022-09-30T22:45:39.499Z,14.27
2022-09-30T22:48:13.172Z,14.30
2022-09-30T22:50:44.845Z,14.31
2022-09-30T22:53:15.874Z,14.34
2022-09-30T22:55:45.666Z,14.40
2022-09-30T22:58:13.537Z,14.32
2022-09-30T23:00:58.686Z,14.35
2022-09-30T23:03:29.612Z,14.34
2022-09-30T23:06:03.562Z,14.18
2022-09-30T23:08:56.723Z,14.21
2022-09-30T23:11:26.134Z,14.39
2022-09-30T23:14:09.965Z,14.32
2022-09-30T23:16:44.187Z,14.20
2022-09-30T23:22:10.090Z,14.32
2022-09-30T23:24:41.265Z,14.29
2022-09-30T23:27:11.901Z,14.31
2022-09-30T23:29:43.777Z,14.06
2022-09-30T23:32:14.895Z,14.04
2022-09-30T23:34:46.039Z,14.00
2022-09-30T23:37:17.299Z,13.85
2022-09-30T23:39:45.298Z,13.94
2022-09-30T23:42:29.002Z,14.05
2022-09-30T23:45:11.974Z,14.08
2022-09-30T23:47:54.118Z,14.07
2022-09-30T23:50:30.392Z,14.16
2022-09-30T23:53:04.870Z,14.18
2022-09-30T23:55:33.038Z,14.18
2022-09-30T23:58:10.038Z,14.12
